sensor_id;sensor_type;location;lat;lon;timestamp;pressure;altitude;pressure_sealevel;temperature;humidity
48614;BME280;34408;51.426;5.444;2023-01-10T00:02:15;101209.97;;;9.26;65.61
48614;BME280;34408;51.426;5.444;2023-01-10T00:04:43;101213.91;;;9.23;65.74
48614;BME280;34408;51.426;5.444;2023-01-10T00:07:13;101219.06;;;9.25;65.71
48614;BME280;34408;51.426;5.444;2023-01-10T00:09:41;101218.44;;;9.23;65.51
48614;BME280;34408;51.426;5.444;2023-01-10T00:12:09;101225.44;;;9.24;65.72
48614;BME280;34408;51.426;5.444;2023-01-10T00:14:54;101230.19;;;9.22;66.03
48614;BME280;34408;51.426;5.444;2023-01-10T00:17:22;101224.59;;;9.10;66.13
48614;BME280;34408;51.426;5.444;2023-01-10T00:19:50;101253.72;;;9.20;65.58
48614;BME280;34408;51.426;5.444;2023-01-10T00:22:19;101250.19;;;9.19;66.20
48614;BME280;34408;51.426;5.444;2023-01-10T00:24:50;101246.88;;;9.17;66.23
48614;BME280;34408;51.426;5.444;2023-01-10T00:27:18;101253.09;;;9.18;65.39
48614;BME280;34408;51.426;5.444;2023-01-10T00:29:49;101255.13;;;9.16;65.50
48614;BME280;34408;51.426;5.444;2023-01-10T00:32:19;101243.97;;;9.05;66.16
48614;BME280;34408;51.426;5.444;2023-01-10T00:34:47;101267.09;;;9.13;66.16
48614;BME280;34408;51.426;5.444;2023-01-10T00:37:15;101283.19;;;9.13;65.88
48614;BME280;34408;51.426;5.444;2023-01-10T00:39:44;101271.63;;;9.12;65.29
48614;BME280;34408;51.426;5.444;2023-01-10T00:42:12;101285.88;;;9.13;65.62
48614;BME280;34408;51.426;5.444;2023-01-10T00:44:57;101278.03;;;9.11;65.25
48614;BME280;34408;51.426;5.444;2023-01-10T00:47:25;101282.56;;;9.11;65.46
48614;BME280;34408;51.426;5.444;2023-01-10T00:49:53;101288.13;;;9.09;65.46
48614;BME280;34408;51.426;5.444;2023-01-10T00:52:20;101283.59;;;9.10;65.89
48614;BME280;34408;51.426;5.444;2023-01-10T00:54:50;101296.16;;;9.09;65.71
48614;BME280;34408;51.426;5.444;2023-01-10T00:57:18;101290.19;;;9.07;65.50
48614;BME280;34408;51.426;5.444;2023-01-10T00:59:46;101295.53;;;9.07;65.60
48614;BME280;34408;51.426;5.444;2023-01-10T01:02:14;101294.91;;;9.05;65.16
48614;BME280;34408;51.426;5.444;2023-01-10T01:04:41;101289.34;;;9.07;65.93
48614;BME280;34408;51.426;5.444;2023-01-10T01:07:09;101297.59;;;9.05;65.47
48614;BME280;34408;51.426;5.444;2023-01-10T01:09:37;101294.09;;;9.05;65.87
48614;BME280;34408;51.426;5.444;2023-01-10T01:12:26;101295.13;;;9.04;65.07
48614;BME280;34408;51.426;5.444;2023-01-10T01:14:54;101308.53;;;9.04;65.28
48614;BME280;34408;51.426;5.444;2023-01-10T01:17:23;101300.03;;;8.94;65.38
48614;BME280;34408;51.426;5.444;2023-01-10T01:19:51;101313.25;;;9.02;65.91
48614;BME280;34408;51.426;5.444;2023-01-10T01:22:19;101318.00;;;9.00;65.23
48614;BME280;34408;51.426;5.444;2023-01-10T01:24:46;101323.56;;;8.98;64.98
48614;BME280;34408;51.426;5.444;2023-01-10T01:27:14;101327.25;;;8.97;65.62
48614;BME280;34408;51.426;5.444;2023-01-10T01:29:43;101335.31;;;8.97;65.97
48614;BME280;34408;51.426;5.444;2023-01-10T01:32:11;101331.16;;;8.95;65.17
48614;BME280;34408;51.426;5.444;2023-01-10T01:34:39;101338.38;;;8.94;65.54
48614;BME280;34408;51.426;5.444;2023-01-10T01:37:07;101343.53;;;8.96;65.34
48614;BME280;34408;51.426;5.444;2023-01-10T01:39:35;101341.25;;;8.93;65.46
48614;BME280;34408;51.426;5.444;2023-01-10T01:42:03;101349.31;;;8.93;65.28
48614;BME280;34408;51.426;5.444;2023-01-10T01:44:34;101347.66;;;8.92;65.71
48614;BME280;34408;51.426;5.444;2023-01-10T01:47:06;101357.53;;;8.91;65.28
48614;BME280;34408;51.426;5.444;2023-01-10T01:49:37;101362.28;;;8.89;65.54
48614;BME280;34408;51.426;5.444;2023-01-10T01:52:11;101371.13;;;8.90;65.76
48614;BME280;34408;51.426;5.444;2023-01-10T01:54:42;101374.03;;;8.88;65.70
48614;BME280;34408;51.426;5.444;2023-01-10T01:57:12;101367.00;;;8.87;65.41
48614;BME280;34408;51.426;5.444;2023-01-10T01:59:43;101375.88;;;8.88;65.75
48614;BME280;34408;51.426;5.444;2023-01-10T02:02:15;101373.19;;;8.88;65.57
48614;BME280;34408;51.426;5.444;2023-01-10T02:04:49;101368.84;;;8.87;65.94
48614;BME280;34408;51.426;5.444;2023-01-10T02:07:18;101367.00;;;8.87;65.63
48614;BME280;34408;51.426;5.444;2023-01-10T02:09:50;101365.53;;;8.85;65.29
48614;BME280;34408;51.426;5.444;2023-01-10T02:12:20;101369.06;;;8.85;65.44
48614;BME280;34408;51.426;5.444;2023-01-10T02:14:49;101375.44;;;8.84;65.56
48614;BME280;34408;51.426;5.444;2023-01-10T02:17:19;101373.78;;;8.83;65.42
48614;BME280;34408;51.426;5.444;2023-01-10T02:19:51;101373.59;;;8.85;65.55
48614;BME280;34408;51.426;5.444;2023-01-10T02:22:46;101379.13;;;8.83;65.56
48614;BME280;34408;51.426;5.444;2023-01-10T02:28:54;101387.38;;;8.81;65.06
48614;BME280;34408;51.426;5.444;2023-01-10T02:31:49;101375.78;;;8.74;64.79
48614;BME280;34408;51.426;5.444;2023-01-10T02:34:20;101384.91;;;8.80;65.63
48614;BME280;34408;51.426;5.444;2023-01-10T02:36:59;101388.41;;;8.80;64.91
48614;BME280;34408;51.426;5.444;2023-01-10T02:39:35;101388.41;;;8.80;65.25
48614;BME280;34408;51.426;5.444;2023-01-10T02:42:07;101391.28;;;8.79;65.83
48614;BME280;34408;51.426;5.444;2023-01-10T02:44:41;101386.94;;;8.78;65.56
48614;BME280;34408;51.426;5.444;2023-01-10T02:47:13;101394.16;;;8.77;65.14
48614;BME280;34408;51.426;5.444;2023-01-10T02:49:42;101392.31;;;8.78;66.05
48614;BME280;34408;51.426;5.444;2023-01-10T02:52:13;101402.19;;;8.77;65.24
48614;BME280;34408;51.426;5.444;2023-01-10T02:54:43;101401.38;;;8.77;65.56
48614;BME280;34408;51.426;5.444;2023-01-10T02:57:21;101392.50;;;8.76;65.49
48614;BME280;34408;51.426;5.444;2023-01-10T03:00:14;101407.75;;;8.76;65.82
48614;BME280;34408;51.426;5.444;2023-01-10T03:02:58;101404.25;;;8.75;64.86
48614;BME280;34408;51.426;5.444;2023-01-10T03:05:38;101407.94;;;8.74;65.19
48614;BME280;34408;51.426;5.444;2023-01-10T03:08:17;101417.84;;;8.74;65.67
48614;BME280;34408;51.426;5.444;2023-01-10T03:10:54;101417.00;;;8.73;65.40
48614;BME280;34408;51.426;5.444;2023-01-10T03:13:26;101410.38;;;8.63;65.44
48614;BME280;34408;51.426;5.444;2023-01-10T03:15:56;101426.28;;;8.71;65.89
48614;BME280;34408;51.426;5.444;2023-01-10T03:18:32;101437.00;;;8.71;65.64
48614;BME280;34408;51.426;5.444;2023-01-10T03:21:02;101442.34;;;8.71;65.14
48614;BME280;34408;51.426;5.444;2023-01-10T03:23:33;101450.38;;;8.71;65.47
48614;BME280;34408;51.426;5.444;2023-01-10T03:26:02;101452.44;;;8.69;65.58
48614;BME280;34408;51.426;5.444;2023-01-10T03:28:33;101461.31;;;8.69;65.77
48614;BME280;34408;51.426;5.444;2023-01-10T03:31:07;101456.97;;;8.68;65.64
48614;BME280;34408;51.426;5.444;2023-01-10T03:33:40;101453.44;;;8.68;64.88
48614;BME280;34408;51.426;5.444;2023-01-10T03:36:13;101461.50;;;8.68;64.74
48614;BME280;34408;51.426;5.444;2023-01-10T03:38:49;101462.50;;;8.67;65.26
48614;BME280;34408;51.426;5.444;2023-01-10T03:41:25;101461.91;;;8.65;65.84
48614;BME280;34408;51.426;5.444;2023-01-10T03:44:07;101461.91;;;8.65;65.75
48614;BME280;34408;51.426;5.444;2023-01-10T03:46:59;101463.75;;;8.64;64.96
48614;BME280;34408;51.426;5.444;2023-01-10T03:49:34;101465.81;;;8.62;65.55
48614;BME280;34408;51.426;5.444;2023-01-10T03:52:04;101469.31;;;8.63;65.18
48614;BME280;34408;51.426;5.444;2023-01-10T03:54:33;101482.72;;;8.63;66.12
48614;BME280;34408;51.426;5.444;2023-01-10T03:57:01;101487.25;;;8.62;65.75
48614;BME280;34408;51.426;5.444;2023-01-10T03:59:29;101486.41;;;8.62;65.94
48614;BME280;34408;51.426;5.444;2023-01-10T04:01:57;101496.31;;;8.61;65.69
48614;BME280;34408;51.426;5.444;2023-01-10T04:04:25;101497.97;;;8.62;65.57
48614;BME280;34408;51.426;5.444;2023-01-10T04:06:54;101497.97;;;8.62;65.13
48614;BME280;34408;51.426;5.444;2023-01-10T04:09:22;101499.81;;;8.62;65.90
48614;BME280;34408;51.426;5.444;2023-01-10T04:11:50;101491.78;;;8.62;66.00
48614;BME280;34408;51.426;5.444;2023-01-10T04:14:18;101500.84;;;8.61;66.00
48614;BME280;34408;51.426;5.444;2023-01-10T04:16:46;101505.38;;;8.60;66.10
48614;BME280;34408;51.426;5.444;2023-01-10T04:19:13;101497.53;;;8.59;65.05
48614;BME280;34408;51.426;5.444;2023-01-10T04:21:41;101513.41;;;8.60;65.74
48614;BME280;34408;51.426;5.444;2023-01-10T04:24:11;101524.94;;;8.61;65.52
48614;BME280;34408;51.426;5.444;2023-01-10T04:26:38;101524.94;;;8.61;65.44
48614;BME280;34408;51.426;5.444;2023-01-10T04:29:06;101523.28;;;8.60;65.56
48614;BME280;34408;51.426;5.444;2023-01-10T04:31:34;101512.91;;;8.50;65.98
48614;BME280;34408;51.426;5.444;2023-01-10T04:34:02;101524.13;;;8.60;65.85
48614;BME280;34408;51.426;5.444;2023-01-10T04:36:30;101520.63;;;8.60;65.22
48614;BME280;34408;51.426;5.444;2023-01-10T04:38:58;101519.78;;;8.59;65.66
48614;BME280;34408;51.426;5.444;2023-01-10T04:41:27;101516.28;;;8.59;65.89
48614;BME280;34408;51.426;5.444;2023-01-10T04:43:55;101512.75;;;8.58;65.75
48614;BME280;34408;51.426;5.444;2023-01-10T04:46:23;101524.31;;;8.59;65.29
48614;BME280;34408;51.426;5.444;2023-01-10T04:48:51;101513.59;;;8.59;65.83
48614;BME280;34408;51.426;5.444;2023-01-10T04:51:19;101525.13;;;8.59;65.79
48614;BME280;34408;51.426;5.444;2023-01-10T04:53:46;101552.75;;;8.60;65.58
48614;BME280;34408;51.426;5.444;2023-01-10T04:56:16;101549.25;;;8.59;65.96
48614;BME280;34408;51.426;5.444;2023-01-10T04:58:46;101539.88;;;8.48;66.00
48614;BME280;34408;51.426;5.444;2023-01-10T05:01:16;101541.41;;;8.58;65.88
48614;BME280;34408;51.426;5.444;2023-01-10T05:03:46;101530.06;;;8.56;65.81
48614;BME280;34408;51.426;5.444;2023-01-10T05:06:14;101526.34;;;8.57;66.40
48614;BME280;34408;51.426;5.444;2023-01-10T05:08:42;101541.59;;;8.56;65.75
48614;BME280;34408;51.426;5.444;2023-01-10T05:11:10;101553.34;;;8.55;65.84
48614;BME280;34408;51.426;5.444;2023-01-10T05:13:39;101550.66;;;8.55;66.24
48614;BME280;34408;51.426;5.444;2023-01-10T05:16:09;101551.69;;;8.54;65.78
48614;BME280;34408;51.426;5.444;2023-01-10T05:18:36;101570.44;;;8.54;66.18
48614;BME280;34408;51.426;5.444;2023-01-10T05:21:06;101591.03;;;8.54;65.84
48614;BME280;34408;51.426;5.444;2023-01-10T05:23:34;101599.25;;;8.52;66.48
48614;BME280;34408;51.426;5.444;2023-01-10T05:26:06;101599.91;;;8.54;65.70
48614;BME280;34408;51.426;5.444;2023-01-10T05:28:35;101565.69;;;8.35;65.73
48614;BME280;34408;51.426;5.444;2023-01-10T05:31:05;101603.59;;;8.53;66.15
48614;BME280;34408;51.426;5.444;2023-01-10T05:33:34;101604.44;;;8.54;66.19
48614;BME280;34408;51.426;5.444;2023-01-10T05:36:04;101606.28;;;8.53;66.01
48614;BME280;34408;51.426;5.444;2023-01-10T05:38:32;101600.09;;;8.53;66.22
48614;BME280;34408;51.426;5.444;2023-01-10T05:41:00;101602.97;;;8.51;65.89
48614;BME280;34408;51.426;5.444;2023-01-10T05:43:28;101593.25;;;8.50;66.61
48614;BME280;34408;51.426;5.444;2023-01-10T05:45:56;101608.31;;;8.51;66.45
48614;BME280;34408;51.426;5.444;2023-01-10T05:48:24;101612.66;;;8.52;66.45
48614;BME280;34408;51.426;5.444;2023-01-10T05:50:53;101616.16;;;8.53;65.60
48614;BME280;34408;51.426;5.444;2023-01-10T05:53:21;101615.16;;;8.54;65.57
48614;BME280;34408;51.426;5.444;2023-01-10T05:55:53;101616.16;;;8.53;65.46
48614;BME280;34408;51.426;5.444;2023-01-10T05:58:21;101606.59;;;8.43;65.74
48614;BME280;34408;51.426;5.444;2023-01-10T06:00:49;101623.38;;;8.52;65.78
48614;BME280;34408;51.426;5.444;2023-01-10T06:03:17;101618.19;;;8.51;65.67
48614;BME280;34408;51.426;5.444;2023-01-10T06:05:45;101619.88;;;8.52;65.79
48614;BME280;34408;51.426;5.444;2023-01-10T06:08:16;101627.06;;;8.51;65.68
48614;BME280;34408;51.426;5.444;2023-01-10T06:10:43;101636.13;;;8.50;66.42
48614;BME280;34408;51.426;5.444;2023-01-10T06:13:11;101634.34;;;8.57;65.60
48614;BME280;34408;51.426;5.444;2023-01-10T06:15:39;101624.84;;;8.55;66.00
48614;BME280;34408;51.426;5.444;2023-01-10T06:18:07;101620.69;;;8.52;65.91
48614;BME280;34408;51.426;5.444;2023-01-10T06:20:37;101615.34;;;8.52;65.99
48614;BME280;34408;51.426;5.444;2023-01-10T06:23:05;101619.88;;;8.52;65.97
48614;BME280;34408;51.426;5.444;2023-01-10T06:25:36;101622.72;;;8.50;65.41
48614;BME280;34408;51.426;5.444;2023-01-10T06:28:06;101622.53;;;8.52;66.22
48614;BME280;34408;51.426;5.444;2023-01-10T06:30:34;101627.91;;;8.52;66.17
48614;BME280;34408;51.426;5.444;2023-01-10T06:33:04;101629.56;;;8.53;65.59
48614;BME280;34408;51.426;5.444;2023-01-10T06:35:33;101630.56;;;8.52;65.42
48614;BME280;34408;51.426;5.444;2023-01-10T06:38:01;101638.81;;;8.50;65.53
48614;BME280;34408;51.426;5.444;2023-01-10T06:40:29;101649.53;;;8.50;65.45
48614;BME280;34408;51.426;5.444;2023-01-10T06:42:58;101640.00;;;8.47;65.70
48614;BME280;34408;51.426;5.444;2023-01-10T06:45:26;101637.13;;;8.49;65.63
48614;BME280;34408;51.426;5.444;2023-01-10T06:47:54;101648.88;;;8.48;66.31
48614;BME280;34408;51.426;5.444;2023-01-10T06:50:22;101641.66;;;8.48;65.99
48614;BME280;34408;51.426;5.444;2023-01-10T06:52:56;101649.06;;;8.46;66.09
48614;BME280;34408;51.426;5.444;2023-01-10T06:55:25;101650.91;;;8.46;65.69
48614;BME280;34408;51.426;5.444;2023-01-10T06:57:54;101655.44;;;8.45;65.80
48614;BME280;34408;51.426;5.444;2023-01-10T07:00:25;101681.22;;;8.46;65.93
48614;BME280;34408;51.426;5.444;2023-01-10T07:02:54;101680.19;;;8.47;65.00
48614;BME280;34408;51.426;5.444;2023-01-10T07:05:22;101680.38;;;8.46;65.45
48614;BME280;34408;51.426;5.444;2023-01-10T07:07:50;101682.41;;;8.44;65.45
48614;BME280;34408;51.426;5.444;2023-01-10T07:10:18;101694.16;;;8.43;65.91
48614;BME280;34408;51.426;5.444;2023-01-10T07:12:46;101695.81;;;8.44;65.59
48614;BME280;34408;51.426;5.444;2023-01-10T07:15:14;101701.72;;;8.39;66.13
48614;BME280;34408;51.426;5.444;2023-01-10T07:17:43;101707.47;;;8.36;65.31
48614;BME280;34408;51.426;5.444;2023-01-10T07:20:11;101705.59;;;8.37;65.72
48614;BME280;34408;51.426;5.444;2023-01-10T07:22:39;101711.16;;;8.35;65.19
48614;BME280;34408;51.426;5.444;2023-01-10T07:25:08;101710.50;;;8.33;65.05
48614;BME280;34408;51.426;5.444;2023-01-10T07:27:36;101713.19;;;8.33;65.74
48614;BME280;34408;51.426;5.444;2023-01-10T07:30:09;101735.59;;;8.32;65.77
48614;BME280;34408;51.426;5.444;2023-01-10T07:32:37;101730.25;;;8.32;65.26
48614;BME280;34408;51.426;5.444;2023-01-10T07:35:07;101737.44;;;8.32;65.25
48614;BME280;34408;51.426;5.444;2023-01-10T07:37:35;101737.44;;;8.32;65.30
48614;BME280;34408;51.426;5.444;2023-01-10T07:40:04;101741.13;;;8.31;65.67
48614;BME280;34408;51.426;5.444;2023-01-10T07:42:32;101749.34;;;8.29;64.94
48614;BME280;34408;51.426;5.444;2023-01-10T07:45:00;101745.66;;;8.30;65.56
48614;BME280;34408;51.426;5.444;2023-01-10T07:47:28;101739.47;;;8.30;65.35
48614;BME280;34408;51.426;5.444;2023-01-10T07:49:56;101745.84;;;8.29;65.25
48614;BME280;34408;51.426;5.444;2023-01-10T07:52:25;101754.06;;;8.27;65.13
48614;BME280;34408;51.426;5.444;2023-01-10T07:54:53;101756.09;;;8.25;66.05
48614;BME280;34408;51.426;5.444;2023-01-10T07:57:21;101762.09;;;8.27;64.94
48614;BME280;34408;51.426;5.444;2023-01-10T07:59:48;101759.41;;;8.27;65.02
48614;BME280;34408;51.426;5.444;2023-01-10T08:02:16;101761.25;;;8.27;65.05
48614;BME280;34408;51.426;5.444;2023-01-10T08:04:44;101757.75;;;8.26;65.10
48614;BME280;34408;51.426;5.444;2023-01-10T08:07:12;101763.28;;;8.25;65.65
48614;BME280;34408;51.426;5.444;2023-01-10T08:09:41;101751.94;;;8.23;65.65
48614;BME280;34408;51.426;5.444;2023-01-10T08:12:09;101753.78;;;8.22;65.38
48614;BME280;34408;51.426;5.444;2023-01-10T08:14:37;101752.78;;;8.23;65.69
48614;BME280;34408;51.426;5.444;2023-01-10T08:17:04;101749.44;;;8.21;64.88
48614;BME280;34408;51.426;5.444;2023-01-10T08:19:32;101759.78;;;8.24;64.82
48614;BME280;34408;51.426;5.444;2023-01-10T08:22:00;101754.63;;;8.23;65.80
48614;BME280;34408;51.426;5.444;2023-01-10T08:24:28;101757.09;;;8.24;65.62
48614;BME280;34408;51.426;5.444;2023-01-10T08:26:58;101755.06;;;8.26;65.47
48614;BME280;34408;51.426;5.444;2023-01-10T08:29:26;101742.44;;;8.20;65.23
48614;BME280;34408;51.426;5.444;2023-01-10T08:31:54;101756.94;;;8.26;64.78
48614;BME280;34408;51.426;5.444;2023-01-10T08:34:22;101753.41;;;8.25;65.54
48614;BME280;34408;51.426;5.444;2023-01-10T08:36:50;101759.78;;;8.24;65.15
48614;BME280;34408;51.426;5.444;2023-01-10T08:39:19;101756.28;;;8.24;65.12
48614;BME280;34408;51.426;5.444;2023-01-10T08:41:48;101761.63;;;8.24;65.15
48614;BME280;34408;51.426;5.444;2023-01-10T08:44:17;101765.13;;;8.24;64.92
48614;BME280;34408;51.426;5.444;2023-01-10T08:46:45;101755.25;;;8.25;65.47
48614;BME280;34408;51.426;5.444;2023-01-10T08:49:13;101766.81;;;8.25;65.12
48614;BME280;34408;51.426;5.444;2023-01-10T08:51:41;101756.09;;;8.25;65.19
48614;BME280;34408;51.426;5.444;2023-01-10T08:54:10;101759.78;;;8.24;65.01
48614;BME280;34408;51.426;5.444;2023-01-10T08:56:38;101745.56;;;8.24;64.63
48614;BME280;34408;51.426;5.444;2023-01-10T08:59:06;101756.28;;;8.24;65.73
48614;BME280;34408;51.426;5.444;2023-01-10T09:01:36;101741.03;;;8.24;65.58
48614;BME280;34408;51.426;5.444;2023-01-10T09:04:04;101747.03;;;8.26;65.33
48614;BME280;34408;51.426;5.444;2023-01-10T09:06:32;101735.50;;;8.26;65.18
48614;BME280;34408;51.426;5.444;2023-01-10T09:08:59;101741.88;;;8.25;65.75
48614;BME280;34408;51.426;5.444;2023-01-10T09:11:27;101734.22;;;8.22;65.48
48614;BME280;34408;51.426;5.444;2023-01-10T09:13:55;101751.75;;;8.24;66.12
48614;BME280;34408;51.426;5.444;2023-01-10T09:16:23;101742.06;;;8.23;65.40
48614;BME280;34408;51.426;5.444;2023-01-10T09:18:52;101741.88;;;8.25;65.43
48614;BME280;34408;51.426;5.444;2023-01-10T09:21:21;101742.53;;;8.27;65.17
48614;BME280;34408;51.426;5.444;2023-01-10T09:23:49;101738.00;;;8.27;65.08
48614;BME280;34408;51.426;5.444;2023-01-10T09:26:17;101740.84;;;8.26;65.38
48614;BME280;34408;51.426;5.444;2023-01-10T09:28:45;101736.53;;;8.25;65.50
48614;BME280;34408;51.426;5.444;2023-01-10T09:31:14;101741.88;;;8.25;65.74
48614;BME280;34408;51.426;5.444;2023-01-10T09:33:42;101743.53;;;8.26;65.50
48614;BME280;34408;51.426;5.444;2023-01-10T09:36:14;101745.38;;;8.25;65.36
48614;BME280;34408;51.426;5.444;2023-01-10T09:38:42;101744.56;;;8.25;65.93
48614;BME280;34408;51.426;5.444;2023-01-10T09:41:20;101741.69;;;8.26;65.09
48614;BME280;34408;51.426;5.444;2023-01-10T09:43:56;101740.50;;;8.29;65.70
48614;BME280;34408;51.426;5.444;2023-01-10T09:46:36;101736.97;;;8.28;65.01
48614;BME280;34408;51.426;5.444;2023-01-10T09:49:17;101742.53;;;8.27;65.75
48614;BME280;34408;51.426;5.444;2023-01-10T09:51:51;101745.19;;;8.27;66.48
48614;BME280;34408;51.426;5.444;2023-01-10T09:54:24;101742.34;;;8.28;65.44
48614;BME280;34408;51.426;5.444;2023-01-10T09:56:53;101743.53;;;8.26;65.78
48614;BME280;34408;51.426;5.444;2023-01-10T09:59:25;101734.50;;;8.27;65.77
48614;BME280;34408;51.426;5.444;2023-01-10T10:01:58;101737.16;;;8.27;66.31
48614;BME280;34408;51.426;5.444;2023-01-10T10:04:32;101731.81;;;8.27;65.85
48614;BME280;34408;51.426;5.444;2023-01-10T10:07:09;101725.53;;;8.20;66.17
48614;BME280;34408;51.426;5.444;2023-01-10T10:09:38;101736.88;;;8.22;66.94
48614;BME280;34408;51.426;5.444;2023-01-10T10:12:20;101741.97;;;8.31;66.14
48614;BME280;34408;51.426;5.444;2023-01-10T10:15:02;101733.94;;;8.46;65.21
48614;BME280;34408;51.426;5.444;2023-01-10T10:17:42;101731.53;;;8.66;65.36
48614;BME280;34408;51.426;5.444;2023-01-10T10:20:23;101721.66;;;8.88;64.46
48614;BME280;34408;51.426;5.444;2023-01-10T10:23:10;101715.75;;;9.13;64.13
48614;BME280;34408;51.426;5.444;2023-01-10T10:25:51;101717.59;;;9.34;63.55
48614;BME280;34408;51.426;5.444;2023-01-10T10:28:37;101713.63;;;9.52;62.17
48614;BME280;34408;51.426;5.444;2023-01-10T10:31:26;101708.81;;;9.68;62.11
48614;BME280;34408;51.426;5.444;2023-01-10T10:34:01;101702.94;;;9.86;61.28
48614;BME280;34408;51.426;5.444;2023-01-10T10:36:37;101699.75;;;10.04;61.13
48614;BME280;34408;51.426;5.444;2023-01-10T10:39:12;101684.81;;;10.23;60.28
48614;BME280;34408;51.426;5.444;2023-01-10T10:41:43;101683.00;;;10.30;60.11
48614;BME280;34408;51.426;5.444;2023-01-10T10:44:26;101683.41;;;10.33;60.00
48614;BME280;34408;51.426;5.444;2023-01-10T10:46:57;101679.31;;;10.37;60.24
48614;BME280;34408;51.426;5.444;2023-01-10T10:49:35;101667.09;;;10.41;59.79
48614;BME280;34408;51.426;5.444;2023-01-10T10:52:13;101661.50;;;10.43;59.86
48614;BME280;34408;51.426;5.444;2023-01-10T10:54:45;101670.84;;;10.47;60.08
48614;BME280;34408;51.426;5.444;2023-01-10T10:57:13;101669.19;;;10.53;59.98
48614;BME280;34408;51.426;5.444;2023-01-10T10:59:44;101663.81;;;10.53;59.67
48614;BME280;34408;51.426;5.444;2023-01-10T11:02:21;101659.28;;;10.53;59.81
48614;BME280;34408;51.426;5.444;2023-01-10T11:04:51;101651.00;;;10.55;59.88
48614;BME280;34408;51.426;5.444;2023-01-10T11:07:19;101626.41;;;10.51;59.86
48614;BME280;34408;51.426;5.444;2023-01-10T11:09:51;101644.63;;;10.62;59.79
48614;BME280;34408;51.426;5.444;2023-01-10T11:12:28;101634.31;;;10.66;59.60
48614;BME280;34408;51.426;5.444;2023-01-10T11:15:00;101646.72;;;10.67;59.59
48614;BME280;34408;51.426;5.444;2023-01-10T11:17:29;101634.94;;;10.68;59.97
48614;BME280;34408;51.426;5.444;2023-01-10T11:20:00;101632.66;;;10.71;59.76
48614;BME280;34408;51.426;5.444;2023-01-10T11:22:37;101630.41;;;10.75;59.82
48614;BME280;34408;51.426;5.444;2023-01-10T11:25:14;101629.56;;;10.81;60.06
48614;BME280;34408;51.426;5.444;2023-01-10T11:27:45;101628.97;;;10.86;59.88
48614;BME280;34408;51.426;5.444;2023-01-10T11:30:17;101624.41;;;10.93;59.26
48614;BME280;34408;51.426;5.444;2023-01-10T11:32:51;101631.25;;;10.95;59.47
48614;BME280;34408;51.426;5.444;2023-01-10T11:35:22;101627.94;;;10.93;59.55
48614;BME280;34408;51.426;5.444;2023-01-10T11:38:00;101607.47;;;11.05;59.19
48614;BME280;34408;51.426;5.444;2023-01-10T11:40:30;101623.19;;;11.28;59.38
48614;BME280;34408;51.426;5.444;2023-01-10T11:42:59;101630.44;;;11.21;58.82
48614;BME280;34408;51.426;5.444;2023-01-10T11:45:31;101614.50;;;11.20;59.88
48614;BME280;34408;51.426;5.444;2023-01-10T11:48:06;101612.03;;;11.05;59.18
48614;BME280;34408;51.426;5.444;2023-01-10T11:50:36;101625.69;;;11.30;59.51
48614;BME280;34408;51.426;5.444;2023-01-10T11:53:06;101616.16;;;11.21;59.00
48614;BME280;34408;51.426;5.444;2023-01-10T11:55:36;101612.22;;;11.17;59.11
48614;BME280;34408;51.426;5.444;2023-01-10T11:58:06;101597.94;;;11.09;59.53
48614;BME280;34408;51.426;5.444;2023-01-10T12:00:38;101606.44;;;11.06;59.44
48614;BME280;34408;51.426;5.444;2023-01-10T12:03:16;101603.72;;;10.87;60.19
48614;BME280;34408;51.426;5.444;2023-01-10T12:05:54;101612.59;;;10.74;60.80
48614;BME280;34408;51.426;5.444;2023-01-10T12:08:26;101599.53;;;10.51;61.50
48614;BME280;34408;51.426;5.444;2023-01-10T12:11:01;101592.69;;;10.35;62.12
48614;BME280;34408;51.426;5.444;2023-01-10T12:13:42;101588.50;;;10.20;62.67
48614;BME280;34408;51.426;5.444;2023-01-10T12:16:16;101586.38;;;10.15;63.85
48614;BME280;34408;51.426;5.444;2023-01-10T12:18:45;101583.69;;;10.15;63.72
48614;BME280;34408;51.426;5.444;2023-01-10T12:21:15;101579.22;;;10.22;63.08
48614;BME280;34408;51.426;5.444;2023-01-10T12:23:47;101565.59;;;10.30;62.56
48614;BME280;34408;51.426;5.444;2023-01-10T12:26:17;101580.28;;;10.41;62.39
48614;BME280;34408;51.426;5.444;2023-01-10T12:28:50;101574.31;;;10.59;61.69
48614;BME280;34408;51.426;5.444;2023-01-10T12:31:21;101560.69;;;10.73;61.16
48614;BME280;34408;51.426;5.444;2023-01-10T12:33:53;101552.63;;;10.93;60.46
48614;BME280;34408;51.426;5.444;2023-01-10T12:36:38;101548.50;;;11.04;59.95
48614;BME280;34408;51.426;5.444;2023-01-10T12:39:14;101538.97;;;11.15;59.83
48614;BME280;34408;51.426;5.444;2023-01-10T12:42:00;101538.31;;;11.32;59.43
48614;BME280;34408;51.426;5.444;2023-01-10T12:44:49;101528.59;;;11.38;59.33
48614;BME280;34408;51.426;5.444;2023-01-10T12:47:27;101523.19;;;11.38;59.44
48614;BME280;34408;51.426;5.444;2023-01-10T12:50:00;101513.50;;;11.30;59.02
48614;BME280;34408;51.426;5.444;2023-01-10T12:52:33;101512.91;;;11.08;61.15
48614;BME280;34408;51.426;5.444;2023-01-10T12:55:11;101523.69;;;10.95;60.63
48614;BME280;34408;51.426;5.444;2023-01-10T12:57:43;101514.78;;;10.68;61.39
48614;BME280;34408;51.426;5.444;2023-01-10T13:00:20;101515.59;;;10.69;62.80
48614;BME280;34408;51.426;5.444;2023-01-10T13:02:52;101521.56;;;10.44;62.29
48614;BME280;34408;51.426;5.444;2023-01-10T13:05:23;101519.31;;;10.35;62.67
48614;BME280;34408;51.426;5.444;2023-01-10T13:07:54;101501.31;;;10.29;63.03
48614;BME280;34408;51.426;5.444;2023-01-10T13:10:23;101507.94;;;10.26;63.16
48614;BME280;34408;51.426;5.444;2023-01-10T13:12:57;101494.50;;;10.20;63.52
48614;BME280;34408;51.426;5.444;2023-01-10T13:15:29;101471.06;;;10.00;63.62
48614;BME280;34408;51.426;5.444;2023-01-10T13:18:01;101477.28;;;10.14;64.19
48614;BME280;34408;51.426;5.444;2023-01-10T13:20:39;101466.75;;;10.19;64.12
48614;BME280;34408;51.426;5.444;2023-01-10T13:23:23;101476.53;;;10.33;63.35